Time;durP1;ratioP1;P1;durP2;ratioP2;P2;SDS_P1;SDS_P2;PMS_P1;PMS_P2;Temp;Humidity;BMP_temperature;BMP_pressure;BME280_temperature;BME280_humidity;BME280_pressure;Samples;Min_cycle;Max_cycle;Signal;HPM_P1;HPM_P2
2021/11/26 00:00:09;;;;;;;6.95;1.20;;;4.50;99.90;;;;;;5059762;28;20047;-67
2021/11/26 00:02:35;;;;;;;7.18;1.52;;;4.50;99.90;;;;;;5059965;28;20120;-67
2021/11/26 00:05:03;;;;;;;6.15;1.38;;;4.60;99.90;;;;;;5059147;28;20059;-67
2021/11/26 00:07:28;;;;;;;8.15;1.30;;;4.70;99.90;;;;;;5059224;28;20036;-67
2021/11/26 00:09:54;;;;;;;11.55;1.45;;;4.70;99.90;;;;;;5056388;28;20125;-67
2021/11/26 00:12:20;;;;;;;9.93;1.38;;;4.70;99.90;;;;;;5057760;28;20506;-67
2021/11/26 00:17:27;;;;;;;9.55;1.30;;;4.80;99.90;;;;;;5065083;28;20106;-67
2021/11/26 00:19:53;;;;;;;6.50;1.20;;;4.80;99.90;;;;;;5056098;28;20044;-67
2021/11/26 00:22:18;;;;;;;6.72;1.20;;;4.90;99.90;;;;;;5058241;28;20044;-67
2021/11/26 00:24:44;;;;;;;10.07;1.35;;;4.90;99.90;;;;;;5090991;28;20040;-67
2021/11/26 00:27:10;;;;;;;8.80;1.10;;;4.90;99.90;;;;;;5054584;28;20344;-67
2021/11/26 00:29:36;;;;;;;6.40;1.05;;;4.80;99.90;;;;;;5090327;28;20075;-67
2021/11/26 00:32:02;;;;;;;5.07;1.20;;;4.80;99.90;;;;;;5059088;28;20044;-67
2021/11/26 00:34:27;;;;;;;9.15;1.67;;;4.90;99.90;;;;;;5056979;28;20055;-67
2021/11/26 00:36:53;;;;;;;7.15;1.55;;;4.80;99.90;;;;;;5058886;28;20037;-67
2021/11/26 00:39:19;;;;;;;7.25;1.60;;;4.80;99.90;;;;;;5058574;28;20512;-67
2021/11/26 00:41:45;;;;;;;9.15;1.15;;;4.80;99.90;;;;;;5072634;28;20528;-67
2021/11/26 00:44:11;;;;;;;7.15;1.30;;;4.70;99.90;;;;;;5055643;28;20048;-67
2021/11/26 00:46:36;;;;;;;9.50;1.50;;;4.80;99.90;;;;;;5057472;28;20352;-67
2021/11/26 00:49:03;;;;;;;9.40;1.40;;;4.80;99.90;;;;;;5058304;28;20818;-67
2021/11/26 00:51:30;;;;;;;7.13;1.50;;;4.80;99.90;;;;;;5058290;28;20048;-67
2021/11/26 00:53:59;;;;;;;5.68;2.00;;;4.70;99.90;;;;;;5057528;28;20045;-67
2021/11/26 00:56:25;;;;;;;5.70;1.60;;;4.80;99.90;;;;;;5043784;28;20036;-67
2021/11/26 00:58:51;;;;;;;8.13;1.63;;;4.70;99.90;;;;;;5062115;28;20383;-67
2021/11/26 01:01:17;;;;;;;8.15;2.20;;;4.80;99.90;;;;;;5056331;28;20469;-67
2021/11/26 01:03:42;;;;;;;7.32;1.40;;;4.70;99.90;;;;;;5060171;28;20142;-67
2021/11/26 01:06:08;;;;;;;10.68;1.60;;;4.80;99.90;;;;;;5058606;28;20558;-67
2021/11/26 01:08:34;;;;;;;7.20;1.38;;;4.80;99.90;;;;;;5057601;28;20044;-67
2021/11/26 01:11:00;;;;;;;5.07;1.05;;;4.80;99.90;;;;;;5057110;28;20544;-67
2021/11/26 01:13:26;;;;;;;4.45;0.80;;;4.70;99.90;;;;;;5059591;28;20120;-67
2021/11/26 01:15:52;;;;;;;8.20;1.40;;;4.70;99.90;;;;;;5056849;28;20040;-67
2021/11/26 01:18:17;;;;;;;11.52;2.08;;;4.70;99.90;;;;;;5057335;28;20037;-67
2021/11/26 01:20:43;;;;;;;6.43;0.82;;;4.70;99.90;;;;;;5060630;28;20074;-67
2021/11/26 01:23:09;;;;;;;6.00;1.88;;;4.60;99.90;;;;;;5054877;28;20041;-67
2021/11/26 01:25:35;;;;;;;8.65;0.90;;;4.70;99.90;;;;;;5091060;28;20761;-67
2021/11/26 01:28:03;;;;;;;2.88;0.80;;;4.70;99.90;;;;;;5057144;28;20045;-67
2021/11/26 01:30:39;;;;;;;11.38;1.90;;;4.60;99.90;;;;;;5060749;28;20055;-67
2021/11/26 01:33:08;;;;;;;12.52;1.42;;;4.60;99.90;;;;;;5063423;28;20531;-67
2021/11/26 01:35:35;;;;;;;4.90;0.57;;;4.50;99.90;;;;;;5061872;28;20098;-67
2021/11/26 01:38:04;;;;;;;5.15;0.77;;;4.60;99.90;;;;;;5060391;28;20048;-67
2021/11/26 01:40:31;;;;;;;7.18;0.82;;;4.60;99.90;;;;;;5060052;28;20052;-67
2021/11/26 01:42:57;;;;;;;7.72;1.08;;;4.50;99.90;;;;;;5058877;28;20432;-67
2021/11/26 01:45:29;;;;;;;6.18;0.65;;;4.50;99.90;;;;;;5060331;28;20124;-67
2021/11/26 01:47:54;;;;;;;6.07;0.80;;;4.60;99.90;;;;;;5061130;28;20410;-67
2021/11/26 01:50:24;;;;;;;6.63;1.15;;;4.50;99.90;;;;;;5060656;28;20036;-67
2021/11/26 01:52:50;;;;;;;7.05;0.85;;;4.60;99.90;;;;;;5061220;28;20060;-67
2021/11/26 01:55:18;;;;;;;7.25;1.00;;;4.60;99.90;;;;;;5059719;28;20052;-67
2021/11/26 01:57:45;;;;;;;7.50;1.30;;;4.60;99.90;;;;;;5062883;28;20052;-67
2021/11/26 02:00:13;;;;;;;6.55;0.93;;;4.60;99.90;;;;;;5060855;28;20045;-67
2021/11/26 02:02:38;;;;;;;6.03;0.88;;;4.60;99.90;;;;;;5060677;28;20064;-67
2021/11/26 02:05:05;;;;;;;7.88;0.90;;;4.70;99.90;;;;;;5062957;28;20426;-67
2021/11/26 02:07:31;;;;;;;7.65;0.98;;;4.70;99.90;;;;;;5092626;28;20060;-67
2021/11/26 02:09:56;;;;;;;6.93;0.70;;;4.70;99.90;;;;;;5061808;28;20032;-67
2021/11/26 02:12:22;;;;;;;8.00;0.85;;;4.70;99.90;;;;;;5062485;28;20051;-66
2021/11/26 02:14:48;;;;;;;4.93;0.98;;;4.70;99.90;;;;;;5060549;28;20493;-67
2021/11/26 02:17:14;;;;;;;4.53;0.60;;;4.70;99.90;;;;;;5062748;28;20041;-67
2021/11/26 02:19:40;;;;;;;8.35;1.30;;;4.70;99.90;;;;;;5061067;28;20556;-67
2021/11/26 02:22:05;;;;;;;4.72;0.77;;;4.80;99.90;;;;;;5060524;28;20081;-67
2021/11/26 02:24:31;;;;;;;10.43;1.17;;;4.80;99.90;;;;;;5062301;28;20045;-67
2021/11/26 02:26:57;;;;;;;5.63;0.57;;;4.80;99.90;;;;;;5061056;28;20109;-67
2021/11/26 02:29:24;;;;;;;7.05;0.95;;;4.90;99.90;;;;;;5059169;28;20131;-67
2021/11/26 02:31:50;;;;;;;4.32;0.60;;;4.90;99.90;;;;;;5058563;28;20506;-67
2021/11/26 02:34:16;;;;;;;7.00;1.08;;;4.90;99.90;;;;;;5061212;28;20079;-67
2021/11/26 02:36:42;;;;;;;9.27;1.50;;;4.90;99.90;;;;;;5060356;28;20047;-67
2021/11/26 02:39:09;;;;;;;9.40;1.48;;;4.80;99.90;;;;;;5060627;28;20036;-67
2021/11/26 02:41:37;;;;;;;5.07;2.50;;;4.80;99.90;;;;;;5059272;28;20521;-67
2021/11/26 02:44:03;;;;;;;6.65;1.20;;;4.80;99.90;;;;;;5058932;28;20036;-67
2021/11/26 02:46:28;;;;;;;7.22;1.52;;;4.80;99.90;;;;;;5059471;28;20083;-67
2021/11/26 02:48:54;;;;;;;6.43;0.93;;;4.80;99.90;;;;;;5062835;28;20087;-67
2021/11/26 02:51:20;;;;;;;8.05;1.55;;;4.80;99.90;;;;;;5059937;28;20048;-67
2021/11/26 02:53:45;;;;;;;5.72;1.30;;;4.80;99.90;;;;;;5092368;28;20037;-67
2021/11/26 02:56:11;;;;;;;7.82;1.48;;;4.80;99.90;;;;;;5060815;28;20052;-67
2021/11/26 02:58:37;;;;;;;7.35;1.60;;;4.80;99.90;;;;;;5058908;28;20044;-67
2021/11/26 03:01:03;;;;;;;7.97;1.42;;;4.90;99.90;;;;;;5058069;28;20065;-67
2021/11/26 03:03:29;;;;;;;6.45;1.02;;;4.80;99.90;;;;;;5059192;28;20056;-67
2021/11/26 03:06:00;;;;;;;4.88;1.02;;;4.80;99.90;;;;;;5092748;28;20036;-67
2021/11/26 03:08:26;;;;;;;6.38;1.40;;;4.90;99.90;;;;;;5060582;28;20040;-67
2021/11/26 03:10:52;;;;;;;8.05;1.35;;;4.90;99.90;;;;;;5059215;28;20044;-67
2021/11/26 03:13:17;;;;;;;6.20;1.10;;;4.90;99.90;;;;;;5059762;28;20044;-67
2021/11/26 03:15:44;;;;;;;5.05;0.88;;;4.90;99.90;;;;;;5059605;28;20364;-67
2021/11/26 03:18:14;;;;;;;8.20;0.85;;;5.00;99.90;;;;;;5060350;28;20127;-67
2021/11/26 03:20:40;;;;;;;3.88;0.73;;;5.00;99.90;;;;;;5062120;28;20032;-68
2021/11/26 03:23:06;;;;;;;7.45;1.00;;;4.90;99.90;;;;;;5059502;28;20045;-67
2021/11/26 03:25:32;;;;;;;5.28;1.17;;;4.90;99.90;;;;;;5058081;28;20052;-67
2021/11/26 03:27:57;;;;;;;8.00;0.90;;;4.90;99.90;;;;;;5092047;28;20402;-67
2021/11/26 03:30:24;;;;;;;3.38;0.70;;;4.90;99.90;;;;;;5059276;28;20043;-67
2021/11/26 03:32:50;;;;;;;6.28;0.77;;;4.90;99.90;;;;;;5060157;28;20091;-67
2021/11/26 03:35:17;;;;;;;3.30;0.68;;;4.90;99.90;;;;;;5063114;28;20044;-67
2021/11/26 03:37:44;;;;;;;3.28;0.63;;;4.80;99.90;;;;;;5062436;28;20082;-68
2021/11/26 03:40:12;;;;;;;2.78;0.50;;;4.90;99.90;;;;;;5063306;28;20103;-67
2021/11/26 03:42:38;;;;;;;4.80;0.65;;;4.90;99.90;;;;;;5064457;28;20116;-68
2021/11/26 03:45:06;;;;;;;1.88;0.35;;;4.90;99.90;;;;;;5058577;28;20040;-67
2021/11/26 03:47:32;;;;;;;3.35;0.47;;;4.90;99.90;;;;;;5057257;28;20064;-67
2021/11/26 03:49:57;;;;;;;4.68;0.50;;;4.90;99.90;;;;;;5064114;28;20477;-67
2021/11/26 03:52:29;;;;;;;2.92;0.30;;;4.90;99.90;;;;;;5097842;28;20040;-67
2021/11/26 03:54:55;;;;;;;4.55;0.75;;;4.90;99.90;;;;;;5062902;28;20368;-67
2021/11/26 03:57:20;;;;;;;4.63;0.55;;;4.90;99.90;;;;;;5061627;28;20059;-67
2021/11/26 03:59:46;;;;;;;2.55;0.40;;;4.90;99.90;;;;;;5062206;28;20040;-67
2021/11/26 04:02:12;;;;;;;3.13;0.40;;;4.90;99.90;;;;;;5060239;28;20399;-66
2021/11/26 04:04:37;;;;;;;2.67;0.40;;;4.90;99.90;;;;;;5061449;28;20048;-67
2021/11/26 04:07:03;;;;;;;3.33;0.47;;;4.80;99.90;;;;;;5060013;28;20482;-67
2021/11/26 04:09:29;;;;;;;7.43;1.02;;;4.80;99.90;;;;;;5063205;28;20487;-67
2021/11/26 04:11:55;;;;;;;2.25;0.40;;;4.80;99.90;;;;;;5061879;28;20040;-67
2021/11/26 04:14:20;;;;;;;2.30;0.50;;;4.70;99.90;;;;;;5060226;28;20511;-67
2021/11/26 04:16:48;;;;;;;1.70;0.30;;;4.70;99.90;;;;;;5058996;28;20052;-67
2021/11/26 04:19:13;;;;;;;1.83;0.60;;;4.70;99.90;;;;;;5057992;28;20040;-67
2021/11/26 04:21:39;;;;;;;3.55;0.90;;;4.70;99.90;;;;;;5060735;28;20042;-67
2021/11/26 04:24:05;;;;;;;5.05;0.73;;;4.70;99.90;;;;;;5065557;28;20071;-67
2021/11/26 04:26:30;;;;;;;3.28;0.70;;;4.70;99.90;;;;;;5061163;28;20048;-67
2021/11/26 04:28:57;;;;;;;1.58;0.38;;;4.60;99.90;;;;;;5062642;28;20040;-67
2021/11/26 04:31:23;;;;;;;3.95;0.60;;;4.70;99.90;;;;;;5061380;28;20059;-66
2021/11/26 04:33:49;;;;;;;9.95;0.60;;;4.70;99.90;;;;;;5063775;28;20695;-67
2021/11/26 04:36:15;;;;;;;3.00;0.50;;;4.70;99.90;;;;;;5094315;28;20384;-67
2021/11/26 04:38:41;;;;;;;2.47;0.38;;;4.60;99.90;;;;;;5061251;28;20402;-67
2021/11/26 04:41:06;;;;;;;4.50;0.32;;;4.60;99.90;;;;;;5061759;28;20028;-67
2021/11/26 04:43:32;;;;;;;2.03;0.30;;;4.60;99.90;;;;;;5061681;28;20083;-67
2021/11/26 04:45:58;;;;;;;4.03;0.20;;;4.60;99.90;;;;;;5061042;28;20044;-67
2021/11/26 04:48:24;;;;;;;1.52;0.60;;;4.60;99.90;;;;;;5061690;28;20045;-67
2021/11/26 04:50:51;;;;;;;2.92;0.30;;;4.50;99.90;;;;;;5061811;28;20052;-67
2021/11/26 04:53:18;;;;;;;3.67;0.65;;;4.60;99.90;;;;;;5064324;28;20048;-67
2021/11/26 04:55:45;;;;;;;5.13;0.40;;;4.50;99.90;;;;;;5061036;28;20076;-67
2021/11/26 04:58:11;;;;;;;6.78;0.60;;;4.50;99.90;;;;;;5058130;28;20056;-67
2021/11/26 05:00:37;;;;;;;4.65;0.57;;;4.50;99.90;;;;;;5060126;28;20541;-67
2021/11/26 05:03:03;;;;;;;3.53;0.70;;;4.50;99.90;;;;;;5064705;28;20479;-67
2021/11/26 05:05:29;;;;;;;2.78;0.52;;;4.50;99.90;;;;;;5061071;28;20045;-67
2021/11/26 05:07:56;;;;;;;5.00;0.88;;;4.50;99.90;;;;;;5063022;28;20033;-67
2021/11/26 05:10:26;;;;;;;4.45;0.65;;;4.50;99.90;;;;;;5064561;28;20052;-67
2021/11/26 05:12:56;;;;;;;5.90;1.00;;;4.50;99.90;;;;;;5063119;28;20040;-67
2021/11/26 05:15:26;;;;;;;6.00;0.80;;;4.50;99.90;;;;;;5062980;28;20055;-66
2021/11/26 05:18:03;;;;;;;3.50;1.02;;;4.50;99.90;;;;;;5063843;28;20485;-67
2021/11/26 05:20:31;;;;;;;4.03;1.00;;;4.40;99.90;;;;;;5063305;28;20148;-67
2021/11/26 05:22:57;;;;;;;3.42;0.80;;;4.40;99.90;;;;;;5100340;28;20040;-67
2021/11/26 05:25:23;;;;;;;3.15;0.85;;;4.40;99.90;;;;;;5067464;28;20048;-67
2021/11/26 05:27:50;;;;;;;4.32;1.00;;;4.40;99.90;;;;;;5067778;28;20455;-67
2021/11/26 05:30:16;;;;;;;4.15;1.65;;;4.30;99.90;;;;;;5072516;28;20032;-67
2021/11/26 05:32:42;;;;;;;4.03;1.27;;;4.40;99.90;;;;;;5062507;28;20040;-67
2021/11/26 05:35:11;;;;;;;9.15;1.45;;;4.30;99.90;;;;;;5064619;28;20041;-67
2021/11/26 05:37:36;;;;;;;4.72;1.63;;;4.30;99.90;;;;;;5063502;28;20078;-67
2021/11/26 05:40:04;;;;;;;6.90;1.80;;;4.30;99.90;;;;;;5065775;28;20044;-67
2021/11/26 05:42:30;;;;;;;5.38;1.65;;;4.30;99.90;;;;;;5062788;28;20597;-67
2021/11/26 05:44:55;;;;;;;8.55;1.83;;;4.30;99.90;;;;;;5068941;28;20090;-67
2021/11/26 05:47:21;;;;;;;5.75;2.00;;;4.30;99.90;;;;;;5096051;28;20083;-67
2021/11/26 05:49:48;;;;;;;6.65;2.30;;;4.20;99.90;;;;;;5099438;28;20048;-67
2021/11/26 05:52:14;;;;;;;6.07;2.70;;;4.20;99.90;;;;;;5065272;28;20040;-67
2021/11/26 05:54:40;;;;;;;13.73;3.00;;;4.10;99.90;;;;;;5099732;27;20094;-67
2021/11/26 05:57:06;;;;;;;9.85;3.22;;;4.20;99.90;;;;;;5068886;28;20509;-67
2021/11/26 05:59:31;;;;;;;7.88;3.47;;;4.10;99.90;;;;;;5067022;28;20041;-67
2021/11/26 06:01:58;;;;;;;6.82;3.17;;;4.10;99.90;;;;;;5066768;28;20037;-67
2021/11/26 06:04:26;;;;;;;8.15;3.83;;;4.10;99.90;;;;;;5063296;28;20049;-67
2021/11/26 06:06:52;;;;;;;7.35;4.07;;;4.10;99.90;;;;;;5064086;28;20395;-67
2021/11/26 06:09:17;;;;;;;8.32;3.70;;;4.10;99.90;;;;;;5095610;28;20062;-67
2021/11/26 06:11:43;;;;;;;6.70;3.83;;;4.10;99.90;;;;;;5063684;28;20075;-67
2021/11/26 06:14:09;;;;;;;7.15;3.80;;;4.10;99.90;;;;;;5064139;28;21498;-67
2021/11/26 06:16:34;;;;;;;9.23;4.13;;;4.00;99.90;;;;;;5063404;28;20032;-67
2021/11/26 06:19:00;;;;;;;9.15;3.65;;;4.10;99.90;;;;;;5062232;28;20044;-67
2021/11/26 06:21:26;;;;;;;7.88;4.10;;;4.10;99.90;;;;;;5062925;28;20044;-67
2021/11/26 06:23:51;;;;;;;8.82;4.35;;;4.10;99.90;;;;;;5064186;28;20486;-67
2021/11/26 06:26:17;;;;;;;9.75;4.22;;;4.10;99.90;;;;;;5093677;27;20084;-67
2021/11/26 06:28:43;;;;;;;10.20;4.10;;;4.10;99.90;;;;;;5062059;28;20040;-68
2021/11/26 06:31:08;;;;;;;5.85;3.55;;;4.10;99.90;;;;;;5063149;28;20044;-67
2021/11/26 06:33:34;;;;;;;9.70;3.50;;;4.10;99.90;;;;;;5062714;28;20067;-67
2021/11/26 06:36:00;;;;;;;12.85;3.53;;;4.10;99.90;;;;;;5063965;28;20036;-67
2021/11/26 06:38:25;;;;;;;5.82;3.30;;;4.10;99.90;;;;;;5063112;28;20047;-67
2021/11/26 06:40:51;;;;;;;8.23;3.40;;;4.10;99.90;;;;;;5060571;28;20074;-67
2021/11/26 06:43:17;;;;;;;7.78;3.03;;;4.10;99.90;;;;;;5060887;28;20060;-67
2021/11/26 06:45:43;;;;;;;7.30;2.45;;;4.10;99.90;;;;;;5061803;28;20048;-67
2021/11/26 06:48:09;;;;;;;8.45;2.40;;;4.20;99.90;;;;;;5060772;28;20052;-67
2021/11/26 06:50:37;;;;;;;5.45;2.33;;;4.20;99.90;;;;;;5061167;28;20044;-67
2021/11/26 06:53:03;;;;;;;7.57;2.40;;;4.10;99.90;;;;;;5058208;28;20044;-67
2021/11/26 06:55:29;;;;;;;8.27;2.63;;;4.10;99.90;;;;;;5059329;28;20032;-67
2021/11/26 06:57:55;;;;;;;6.40;2.20;;;4.20;99.90;;;;;;5062120;28;20042;-67
2021/11/26 07:00:21;;;;;;;6.95;3.03;;;4.20;99.90;;;;;;5064183;28;20040;-67
2021/11/26 07:02:48;;;;;;;6.90;2.10;;;4.10;99.90;;;;;;5061676;28;20487;-67
2021/11/26 07:05:14;;;;;;;4.65;1.67;;;4.10;99.90;;;;;;5066135;28;20418;-67
2021/11/26 07:07:40;;;;;;;5.45;1.75;;;4.20;99.90;;;;;;5065376;28;20048;-67
2021/11/26 07:10:07;;;;;;;5.13;1.63;;;4.10;99.90;;;;;;5065269;28;20045;-67
2021/11/26 07:12:34;;;;;;;5.90;1.90;;;4.10;99.90;;;;;;5065141;28;20376;-67
2021/11/26 07:15:00;;;;;;;8.52;2.13;;;4.10;99.90;;;;;;5062999;28;20052;-67
2021/11/26 07:17:26;;;;;;;7.75;2.10;;;4.10;99.90;;;;;;5064989;28;20486;-67
2021/11/26 07:19:51;;;;;;;9.82;2.10;;;4.10;99.90;;;;;;5076699;28;20075;-67
2021/11/26 07:22:18;;;;;;;5.05;2.40;;;4.00;99.90;;;;;;5093450;28;20056;-67
2021/11/26 07:24:45;;;;;;;7.85;2.08;;;4.10;99.90;;;;;;5062970;28;20048;-66
2021/11/26 07:27:11;;;;;;;4.38;2.15;;;4.00;99.90;;;;;;5063318;28;20127;-66
2021/11/26 07:29:37;;;;;;;5.50;2.20;;;4.00;99.90;;;;;;5060773;28;20044;-67
2021/11/26 07:32:03;;;;;;;9.02;2.83;;;4.00;99.90;;;;;;5061764;28;20474;-67
2021/11/26 07:34:29;;;;;;;5.68;2.50;;;4.00;99.90;;;;;;5064260;28;20040;-67
2021/11/26 07:36:55;;;;;;;7.90;2.65;;;4.00;99.90;;;;;;5057547;28;20035;-68
2021/11/26 07:39:22;;;;;;;7.05;2.25;;;4.00;99.90;;;;;;5094671;28;20032;-69
2021/11/26 07:41:47;;;;;;;7.13;2.00;;;4.00;99.90;;;;;;5061984;28;20045;-68
2021/11/26 07:44:13;;;;;;;8.80;2.42;;;4.00;99.90;;;;;;5062283;28;20042;-68
2021/11/26 07:46:39;;;;;;;5.30;2.67;;;4.00;99.90;;;;;;5063734;28;20045;-67
2021/11/26 07:49:04;;;;;;;9.55;2.72;;;4.00;99.90;;;;;;5093807;28;20040;-68
2021/11/26 07:51:30;;;;;;;6.00;2.65;;;4.00;99.90;;;;;;5067863;28;20119;-68
2021/11/26 07:53:57;;;;;;;10.77;2.42;;;4.00;99.90;;;;;;5060567;28;20044;-68
2021/11/26 07:56:22;;;;;;;10.15;2.50;;;4.00;99.90;;;;;;5064130;28;20115;-68
2021/11/26 07:58:48;;;;;;;9.50;2.83;;;4.00;99.90;;;;;;5064353;28;20120;-68
2021/11/26 08:01:14;;;;;;;10.07;2.78;;;4.10;99.90;;;;;;5064445;28;20028;-67
2021/11/26 08:03:39;;;;;;;8.57;2.60;;;4.00;99.90;;;;;;5062992;28;20470;-68
2021/11/26 08:06:05;;;;;;;15.80;2.63;;;4.10;99.90;;;;;;5063252;28;20040;-68
2021/11/26 08:08:31;;;;;;;12.48;2.85;;;4.10;99.90;;;;;;5077980;28;20044;-67
2021/11/26 08:10:57;;;;;;;10.38;2.05;;;4.10;99.90;;;;;;5063837;28;20375;-67
2021/11/26 08:13:22;;;;;;;12.15;2.63;;;4.10;99.90;;;;;;5062824;28;20052;-67
2021/11/26 08:15:48;;;;;;;9.32;3.00;;;4.10;99.90;;;;;;5062697;28;20542;-67
2021/11/26 08:18:14;;;;;;;6.82;2.17;;;4.10;99.90;;;;;;5094715;28;20036;-67
2021/11/26 08:20:39;;;;;;;10.95;3.10;;;4.20;99.90;;;;;;5062974;28;20049;-67
2021/11/26 08:23:07;;;;;;;7.38;2.10;;;4.20;99.90;;;;;;5058384;28;20037;-67
2021/11/26 08:25:33;;;;;;;16.23;2.25;;;4.20;99.90;;;;;;5062971;28;20055;-67
2021/11/26 08:27:59;;;;;;;8.85;1.77;;;4.20;99.90;;;;;;5066273;28;20407;-67
2021/11/26 08:30:25;;;;;;;9.88;2.20;;;4.30;99.90;;;;;;5062735;28;20109;-68
2021/11/26 08:32:52;;;;;;;10.63;2.47;;;4.30;99.90;;;;;;5061634;28;20040;-68
2021/11/26 08:35:18;;;;;;;9.50;2.10;;;4.30;99.90;;;;;;5044966;28;20071;-68
2021/11/26 08:37:45;;;;;;;9.82;1.60;;;4.30;99.90;;;;;;5066180;28;20066;-67
2021/11/26 08:40:11;;;;;;;7.97;2.08;;;4.30;99.90;;;;;;5068247;28;20077;-68
2021/11/26 08:42:37;;;;;;;9.18;2.00;;;4.30;99.90;;;;;;5071176;28;20037;-67
2021/11/26 08:45:03;;;;;;;9.77;1.95;;;4.30;99.90;;;;;;5072157;28;20040;-68
2021/11/26 08:47:29;;;;;;;10.05;1.90;;;4.40;99.90;;;;;;5070174;28;20032;-68
2021/11/26 08:49:55;;;;;;;10.38;2.08;;;4.50;99.90;;;;;;5073596;28;20119;-67
2021/11/26 08:52:21;;;;;;;14.48;2.22;;;4.50;99.90;;;;;;5072893;28;20060;-68
2021/11/26 08:54:47;;;;;;;11.60;1.90;;;4.50;99.90;;;;;;5063507;28;20040;-67
2021/11/26 08:57:15;;;;;;;5.50;1.58;;;4.50;99.90;;;;;;5067631;28;20044;-67
2021/11/26 08:59:42;;;;;;;6.72;1.85;;;4.50;99.90;;;;;;5100884;28;20051;-68
2021/11/26 09:02:08;;;;;;;11.05;2.25;;;4.50;99.90;;;;;;5065191;28;20130;-68
2021/11/26 09:04:34;;;;;;;8.77;1.55;;;4.60;99.90;;;;;;5070162;28;20029;-67
2021/11/26 09:07:00;;;;;;;7.93;1.80;;;4.50;99.90;;;;;;5068916;28;20032;-68
2021/11/26 09:09:25;;;;;;;11.30;1.77;;;4.60;99.90;;;;;;5070520;28;20048;-67
2021/11/26 09:11:51;;;;;;;6.15;1.38;;;4.60;99.90;;;;;;5069612;28;20047;-67
2021/11/26 09:14:17;;;;;;;9.70;1.60;;;4.60;99.90;;;;;;5071392;28;20059;-67
2021/11/26 09:16:43;;;;;;;10.93;2.28;;;4.60;99.90;;;;;;5068627;28;20052;-67
2021/11/26 09:19:09;;;;;;;6.82;1.60;;;4.70;99.90;;;;;;5071957;28;20040;-67
2021/11/26 09:21:35;;;;;;;12.13;1.65;;;4.70;99.90;;;;;;5073522;28;20032;-67
2021/11/26 09:24:01;;;;;;;11.35;1.67;;;4.70;99.90;;;;;;5071023;28;20074;-67
2021/11/26 09:26:27;;;;;;;7.57;1.65;;;4.70;99.90;;;;;;5069313;28;20048;-68
2021/11/26 09:28:54;;;;;;;11.25;1.38;;;4.70;99.90;;;;;;5071106;28;20059;-67
2021/11/26 09:31:21;;;;;;;10.02;2.00;;;4.80;99.90;;;;;;5070807;28;20032;-68
2021/11/26 09:33:48;;;;;;;10.73;1.88;;;4.80;99.90;;;;;;5069412;28;20097;-67
2021/11/26 09:36:14;;;;;;;9.93;2.90;;;4.80;99.90;;;;;;5069561;28;20072;-67
2021/11/26 09:38:42;;;;;;;16.88;2.78;;;4.80;99.90;;;;;;5102103;28;20510;-68
2021/11/26 09:41:11;;;;;;;6.97;1.75;;;4.90;99.90;;;;;;5066274;28;20140;-67
2021/11/26 09:43:37;;;;;;;8.35;1.75;;;4.90;99.90;;;;;;5071421;28;20074;-68
2021/11/26 09:46:05;;;;;;;14.63;2.45;;;4.90;99.90;;;;;;5067849;28;20045;-67
2021/11/26 09:48:33;;;;;;;10.38;2.53;;;4.90;99.90;;;;;;5069950;28;20438;-68
2021/11/26 09:50:59;;;;;;;13.15;1.92;;;4.90;99.90;;;;;;5067254;28;20068;-68
2021/11/26 09:53:27;;;;;;;9.70;2.00;;;5.00;99.90;;;;;;5068637;28;20391;-68
2021/11/26 09:56:00;;;;;;;9.93;2.08;;;5.00;99.90;;;;;;5066098;28;20036;-68
2021/11/26 09:58:28;;;;;;;8.57;2.25;;;5.00;99.90;;;;;;5062852;28;20079;-68
2021/11/26 10:00:56;;;;;;;10.20;2.17;;;5.00;99.90;;;;;;5063572;28;20051;-68
2021/11/26 10:03:34;;;;;;;8.77;1.77;;;5.00;99.90;;;;;;5066800;28;20048;-68
2021/11/26 10:06:00;;;;;;;10.82;2.03;;;5.00;99.90;;;;;;5094993;27;20044;-68
2021/11/26 10:08:26;;;;;;;12.70;2.45;;;5.10;99.90;;;;;;5063038;28;20036;-67
2021/11/26 10:11:00;;;;;;;9.32;2.25;;;5.10;99.90;;;;;;5063406;28;20042;-67
2021/11/26 10:13:30;;;;;;;11.77;2.75;;;5.10;99.90;;;;;;5063475;28;20119;-68
2021/11/26 10:15:56;;;;;;;10.15;2.65;;;5.20;99.90;;;;;;5064256;28;20040;-67
2021/11/26 10:18:27;;;;;;;8.23;2.40;;;5.10;99.90;;;;;;5059702;28;20049;-68
2021/11/26 10:21:04;;;;;;;13.98;2.80;;;5.20;99.90;;;;;;5064863;28;20037;-68
2021/11/26 10:23:38;;;;;;;12.80;2.75;;;5.20;99.90;;;;;;5064114;28;20486;-67
2021/11/26 10:26:25;;;;;;;7.75;2.08;;;5.20;99.90;;;;;;5068266;28;20036;-68
2021/11/26 10:29:02;;;;;;;8.07;1.63;;;5.30;99.90;;;;;;5065194;28;20407;-67
2021/11/26 10:31:34;;;;;;;12.77;2.38;;;5.40;99.90;;;;;;5063217;28;20084;-67
2021/11/26 10:34:03;;;;;;;8.38;2.60;;;5.40;99.90;;;;;;5065704;28;20033;-67
2021/11/26 10:36:51;;;;;;;14.32;2.38;;;5.50;99.90;;;;;;5062747;28;20043;-68
2021/11/26 10:39:20;;;;;;;12.40;1.90;;;5.50;99.90;;;;;;5064857;28;20040;-68
2021/11/26 10:41:57;;;;;;;7.78;1.85;;;5.60;99.90;;;;;;5067695;28;20029;-68
2021/11/26 10:44:53;;;;;;;7.60;1.90;;;5.60;99.90;;;;;;5065497;28;20690;-68
2021/11/26 10:47:42;;;;;;;9.05;2.03;;;5.70;99.90;;;;;;5062372;28;20429;-68
2021/11/26 11:00:59;;;;;;;10.95;3.20;;;5.70;99.90;;;;;;5062011;28;20040;-68
2021/11/26 11:03:26;;;;;;;12.98;1.92;;;5.60;99.90;;;;;;5065949;28;20046;-67
2021/11/26 11:05:51;;;;;;;17.63;3.67;;;5.70;99.90;;;;;;5097323;28;20552;-68
2021/11/26 11:08:24;;;;;;;10.43;2.40;;;5.70;99.90;;;;;;5064845;28;20044;-68
2021/11/26 11:10:50;;;;;;;15.43;3.50;;;5.60;99.90;;;;;;5077119;28;20039;-67
2021/11/26 11:13:19;;;;;;;9.48;2.53;;;5.60;99.90;;;;;;5066367;28;20045;-68
2021/11/26 11:15:48;;;;;;;14.02;3.13;;;5.60;99.90;;;;;;5066385;28;20036;-68
2021/11/26 11:18:14;;;;;;;8.65;2.40;;;5.50;99.90;;;;;;5063934;28;20051;-67
2021/11/26 11:20:42;;;;;;;13.23;2.58;;;5.50;99.90;;;;;;5064283;28;20040;-68
2021/11/26 11:23:14;;;;;;;13.02;2.50;;;5.50;99.90;;;;;;5066123;28;20041;-67
2021/11/26 11:25:41;;;;;;;11.45;2.97;;;5.50;99.90;;;;;;5061544;28;20045;-68
2021/11/26 11:28:09;;;;;;;10.35;3.13;;;5.50;99.90;;;;;;5077259;28;20041;-68
2021/11/26 11:30:36;;;;;;;9.25;2.95;;;5.40;99.90;;;;;;5063604;28;20028;-67
2021/11/26 11:33:03;;;;;;;10.68;2.97;;;5.50;99.90;;;;;;5063703;28;20059;-68
2021/11/26 11:35:30;;;;;;;16.63;3.70;;;5.50;99.90;;;;;;5061327;28;20033;-68
2021/11/26 11:37:58;;;;;;;10.68;3.05;;;5.50;99.90;;;;;;5057533;28;20078;-68
2021/11/26 11:40:31;;;;;;;9.80;3.45;;;5.50;99.90;;;;;;5057952;28;20040;-68
2021/11/26 11:43:19;;;;;;;10.55;3.35;;;5.50;99.90;;;;;;5060951;28;20056;-68
2021/11/26 11:46:15;;;;;;;11.32;3.40;;;5.60;99.90;;;;;;5065140;28;20048;-68
2021/11/26 11:48:46;;;;;;;13.13;4.13;;;5.60;99.90;;;;;;5065563;28;20812;-68
2021/11/26 11:51:28;;;;;;;10.60;3.88;;;5.60;99.90;;;;;;5093369;27;20052;-67
2021/11/26 11:54:09;;;;;;;12.75;4.25;;;5.70;99.90;;;;;;5060738;28;20059;-68
2021/11/26 11:56:53;;;;;;;13.10;4.72;;;5.70;99.90;;;;;;5090596;28;20047;-67
2021/11/26 11:59:30;;;;;;;11.00;3.92;;;5.70;99.90;;;;;;5060909;28;20111;-68
2021/11/26 12:01:57;;;;;;;15.55;4.30;;;5.80;99.90;;;;;;5063035;28;20076;-68
2021/11/26 12:04:24;;;;;;;10.45;3.85;;;5.70;99.90;;;;;;5064261;28;20123;-68
2021/11/26 12:06:51;;;;;;;14.68;4.32;;;5.80;99.90;;;;;;5043992;28;20052;-68
2021/11/26 12:09:29;;;;;;;12.95;4.25;;;5.80;99.90;;;;;;5062405;28;20085;-68
2021/11/26 12:12:20;;;;;;;15.77;4.47;;;5.70;99.90;;;;;;5058855;28;20040;-67
2021/11/26 12:14:52;;;;;;;15.48;6.05;;;5.80;99.90;;;;;;5060743;28;20159;-68
2021/11/26 12:17:36;;;;;;;12.05;3.80;;;5.80;99.90;;;;;;5061597;28;20052;-67
2021/11/26 12:20:05;;;;;;;13.15;4.68;;;5.70;99.90;;;;;;5064706;28;20049;-67
2021/11/26 12:22:46;;;;;;;14.05;3.95;;;5.70;99.90;;;;;;5060889;28;20071;-68
2021/11/26 12:28:13;;;;;;;11.15;4.20;;;5.70;99.90;;;;;;5060017;28;20055;-68
2021/11/26 12:30:40;;;;;;;16.48;4.50;;;5.80;99.90;;;;;;5057845;28;20040;-67
2021/11/26 12:33:39;;;;;;;15.27;3.65;;;5.70;99.90;;;;;;5058505;28;20048;-68
2021/11/26 12:36:09;;;;;;;12.98;3.55;;;5.70;99.90;;;;;;5055008;28;20049;-67
2021/11/26 12:38:42;;;;;;;11.43;3.28;;;5.70;99.90;;;;;;5059705;28;20036;-67
2021/11/26 12:41:09;;;;;;;15.60;5.07;;;5.60;99.90;;;;;;5093553;28;20040;-67
2021/11/26 12:43:53;;;;;;;11.18;3.25;;;5.60;99.90;;;;;;5063391;28;20083;-68
2021/11/26 12:46:28;;;;;;;12.48;3.15;;;5.60;99.90;;;;;;5063600;28;20041;-67
2021/11/26 12:51:53;;;;;;;8.07;2.35;;;5.60;99.90;;;;;;5070709;28;20040;-67
2021/11/26 12:54:35;;;;;;;10.15;2.95;;;5.60;99.90;;;;;;5080183;28;20143;-66
2021/11/26 12:57:06;;;;;;;9.52;2.75;;;5.70;99.90;;;;;;5065726;28;20466;-67
2021/11/26 12:59:36;;;;;;;12.18;3.88;;;5.70;99.90;;;;;;5061387;28;20071;-66
2021/11/26 13:02:04;;;;;;;9.80;2.35;;;5.70;99.90;;;;;;5061622;28;20124;-66
2021/11/26 13:04:30;;;;;;;8.73;2.55;;;5.70;99.90;;;;;;5060754;28;20041;-66
2021/11/26 13:07:09;;;;;;;6.78;2.58;;;5.70;99.90;;;;;;5057537;28;20128;-67
2021/11/26 13:09:47;;;;;;;11.43;4.13;;;5.70;99.90;;;;;;5061714;28;20381;-67
2021/11/26 13:12:16;;;;;;;9.93;2.17;;;5.80;99.90;;;;;;5062928;28;20036;-66
2021/11/26 13:14:47;;;;;;;6.82;2.53;;;5.80;99.90;;;;;;5094993;28;20086;-67
2021/11/26 13:17:15;;;;;;;8.35;2.55;;;5.80;99.90;;;;;;5078428;28;20037;-66